sensor_id;sensor_type;location;lat;lon;timestamp;temperature;humidity
16040;DHT22;8124;48.634;8.120;2023-06-26T00:01:56;25.20;45.20
16040;DHT22;8124;48.634;8.120;2023-06-26T00:06:59;24.10;45.10
16040;DHT22;8124;48.634;8.120;2023-06-26T00:12:02;24.60;46.50
16040;DHT22;8124;48.634;8.120;2023-06-26T00:17:06;24.80;47.40
16040;DHT22;8124;48.634;8.120;2023-06-26T00:22:09;24.80;48.30
16040;DHT22;8124;48.634;8.120;2023-06-26T00:27:12;25.00;48.80
16040;DHT22;8124;48.634;8.120;2023-06-26T00:32:19;25.10;48.90
16040;DHT22;8124;48.634;8.120;2023-06-26T00:37:22;25.10;49.10
16040;DHT22;8124;48.634;8.120;2023-06-26T00:42:25;24.50;49.10
16040;DHT22;8124;48.634;8.120;2023-06-26T00:47:29;24.70;50.00
16040;DHT22;8124;48.634;8.120;2023-06-26T00:52:32;24.70;50.50
16040;DHT22;8124;48.634;8.120;2023-06-26T00:57:35;24.80;50.90
16040;DHT22;8124;48.634;8.120;2023-06-26T01:02:40;24.70;51.00
16040;DHT22;8124;48.634;8.120;2023-06-26T01:07:44;24.70;51.20
16040;DHT22;8124;48.634;8.120;2023-06-26T01:12:47;24.50;51.50
16040;DHT22;8124;48.634;8.120;2023-06-26T01:17:51;24.50;51.90
16040;DHT22;8124;48.634;8.120;2023-06-26T01:23:03;24.40;52.20
16040;DHT22;8124;48.634;8.120;2023-06-26T01:28:10;24.20;52.80
16040;DHT22;8124;48.634;8.120;2023-06-26T01:33:14;24.20;53.00
16040;DHT22;8124;48.634;8.120;2023-06-26T01:38:19;24.20;53.20
16040;DHT22;8124;48.634;8.120;2023-06-26T01:43:27;23.70;53.50
16040;DHT22;8124;48.634;8.120;2023-06-26T01:48:36;23.50;54.10
16040;DHT22;8124;48.634;8.120;2023-06-26T01:53:44;23.40;54.80
16040;DHT22;8124;48.634;8.120;2023-06-26T01:58:50;23.60;55.80
16040;DHT22;8124;48.634;8.120;2023-06-26T02:03:56;23.60;56.30
16040;DHT22;8124;48.634;8.120;2023-06-26T02:09:00;23.80;56.80
16040;DHT22;8124;48.634;8.120;2023-06-26T02:14:06;23.40;57.10
16040;DHT22;8124;48.634;8.120;2023-06-26T02:19:11;23.20;57.60
16040;DHT22;8124;48.634;8.120;2023-06-26T02:24:13;23.50;58.70
16040;DHT22;8124;48.634;8.120;2023-06-26T02:29:18;23.50;59.10
16040;DHT22;8124;48.634;8.120;2023-06-26T02:34:21;23.40;59.60
16040;DHT22;8124;48.634;8.120;2023-06-26T02:39:24;23.60;59.90
16040;DHT22;8124;48.634;8.120;2023-06-26T02:44:30;23.50;60.30
16040;DHT22;8124;48.634;8.120;2023-06-26T02:49:33;23.30;61.80
16040;DHT22;8124;48.634;8.120;2023-06-26T02:54:36;23.20;63.40
16040;DHT22;8124;48.634;8.120;2023-06-26T02:59:41;22.90;64.30
16040;DHT22;8124;48.634;8.120;2023-06-26T03:04:49;23.00;65.80
16040;DHT22;8124;48.634;8.120;2023-06-26T03:09:52;22.70;66.90
16040;DHT22;8124;48.634;8.120;2023-06-26T03:14:56;22.40;69.10
16040;DHT22;8124;48.634;8.120;2023-06-26T03:19:59;22.10;72.20
16040;DHT22;8124;48.634;8.120;2023-06-26T03:25:11;21.90;76.10
16040;DHT22;8124;48.634;8.120;2023-06-26T03:30:16;22.00;79.30
16040;DHT22;8124;48.634;8.120;2023-06-26T03:35:21;22.30;83.00
16040;DHT22;8124;48.634;8.120;2023-06-26T03:40:24;22.50;85.10
16040;DHT22;8124;48.634;8.120;2023-06-26T03:45:29;22.70;86.80
16040;DHT22;8124;48.634;8.120;2023-06-26T03:50:33;22.70;88.40
16040;DHT22;8124;48.634;8.120;2023-06-26T03:55:37;22.70;90.00
16040;DHT22;8124;48.634;8.120;2023-06-26T04:00:42;22.30;90.80
16040;DHT22;8124;48.634;8.120;2023-06-26T04:05:45;21.90;92.70
16040;DHT22;8124;48.634;8.120;2023-06-26T04:10:48;21.50;95.50
16040;DHT22;8124;48.634;8.120;2023-06-26T04:15:54;22.00;97.90
16040;DHT22;8124;48.634;8.120;2023-06-26T04:21:06;22.30;98.40
16040;DHT22;8124;48.634;8.120;2023-06-26T04:26:09;22.30;99.40
16040;DHT22;8124;48.634;8.120;2023-06-26T04:31:16;22.10;99.70
16040;DHT22;8124;48.634;8.120;2023-06-26T04:36:19;21.90;99.90
16040;DHT22;8124;48.634;8.120;2023-06-26T04:41:22;22.20;99.90
16040;DHT22;8124;48.634;8.120;2023-06-26T04:46:27;22.40;99.90
16040;DHT22;8124;48.634;8.120;2023-06-26T04:51:30;22.60;99.90
16040;DHT22;8124;48.634;8.120;2023-06-26T04:56:33;22.70;99.90
16040;DHT22;8124;48.634;8.120;2023-06-26T05:01:38;22.80;99.90
16040;DHT22;8124;48.634;8.120;2023-06-26T05:06:41;22.70;99.90
16040;DHT22;8124;48.634;8.120;2023-06-26T05:11:44;22.90;99.90
16040;DHT22;8124;48.634;8.120;2023-06-26T05:16:49;23.30;99.90
16040;DHT22;8124;48.634;8.120;2023-06-26T05:21:52;23.40;99.90
16040;DHT22;8124;48.634;8.120;2023-06-26T05:26:56;23.50;99.90
16040;DHT22;8124;48.634;8.120;2023-06-26T05:32:01;23.70;99.90
16040;DHT22;8124;48.634;8.120;2023-06-26T05:37:05;24.00;99.90
16040;DHT22;8124;48.634;8.120;2023-06-26T05:42:11;24.20;99.90
16040;DHT22;8124;48.634;8.120;2023-06-26T05:47:15;24.30;99.90
16040;DHT22;8124;48.634;8.120;2023-06-26T05:52:19;24.30;99.90
16040;DHT22;8124;48.634;8.120;2023-06-26T05:57:22;24.50;99.90
16040;DHT22;8124;48.634;8.120;2023-06-26T06:02:27;24.70;99.90
16040;DHT22;8124;48.634;8.120;2023-06-26T06:07:33;24.70;99.90
16040;DHT22;8124;48.634;8.120;2023-06-26T06:12:36;25.10;99.90
16040;DHT22;8124;48.634;8.120;2023-06-26T06:17:41;25.50;99.90
16040;DHT22;8124;48.634;8.120;2023-06-26T06:22:44;25.40;99.90
16040;DHT22;8124;48.634;8.120;2023-06-26T06:27:47;25.80;99.90
16040;DHT22;8124;48.634;8.120;2023-06-26T06:32:51;26.00;99.90
16040;DHT22;8124;48.634;8.120;2023-06-26T06:37:55;26.20;99.90
16040;DHT22;8124;48.634;8.120;2023-06-26T06:42:58;26.40;99.90
16040;DHT22;8124;48.634;8.120;2023-06-26T06:48:02;26.30;99.90
16040;DHT22;8124;48.634;8.120;2023-06-26T06:53:05;26.40;99.90
16040;DHT22;8124;48.634;8.120;2023-06-26T06:58:08;26.20;99.90
16040;DHT22;8124;48.634;8.120;2023-06-26T07:03:12;26.50;99.90
16040;DHT22;8124;48.634;8.120;2023-06-26T07:08:16;26.50;99.90
16040;DHT22;8124;48.634;8.120;2023-06-26T07:13:19;26.50;99.90
16040;DHT22;8124;48.634;8.120;2023-06-26T07:18:23;26.60;99.90
16040;DHT22;8124;48.634;8.120;2023-06-26T07:23:26;26.90;99.90
16040;DHT22;8124;48.634;8.120;2023-06-26T07:28:29;27.30;99.90
16040;DHT22;8124;48.634;8.120;2023-06-26T07:33:34;27.60;99.90
16040;DHT22;8124;48.634;8.120;2023-06-26T07:38:37;27.80;99.90
16040;DHT22;8124;48.634;8.120;2023-06-26T07:43:40;28.10;99.90
16040;DHT22;8124;48.634;8.120;2023-06-26T07:48:44;27.90;99.90
16040;DHT22;8124;48.634;8.120;2023-06-26T07:53:47;28.10;99.90
16040;DHT22;8124;48.634;8.120;2023-06-26T07:58:50;27.80;99.20
16040;DHT22;8124;48.634;8.120;2023-06-26T08:03:55;27.90;98.20
16040;DHT22;8124;48.634;8.120;2023-06-26T08:08:59;28.00;97.40
16040;DHT22;8124;48.634;8.120;2023-06-26T08:14:02;28.50;98.50
16040;DHT22;8124;48.634;8.120;2023-06-26T08:19:06;28.70;98.60
16040;DHT22;8124;48.634;8.120;2023-06-26T08:24:10;28.30;96.90
16040;DHT22;8124;48.634;8.120;2023-06-26T08:29:15;28.50;96.30
16040;DHT22;8124;48.634;8.120;2023-06-26T08:34:19;28.20;94.80
16040;DHT22;8124;48.634;8.120;2023-06-26T08:39:22;28.10;93.80
16040;DHT22;8124;48.634;8.120;2023-06-26T08:44:25;28.00;93.40
16040;DHT22;8124;48.634;8.120;2023-06-26T08:49:37;27.70;92.80
16040;DHT22;8124;48.634;8.120;2023-06-26T08:54:45;27.80;92.90
16040;DHT22;8124;48.634;8.120;2023-06-26T08:59:49;28.20;93.70
16040;DHT22;8124;48.634;8.120;2023-06-26T09:04:54;28.50;93.80
16040;DHT22;8124;48.634;8.120;2023-06-26T09:09:58;28.50;93.30
16040;DHT22;8124;48.634;8.120;2023-06-26T09:15:01;28.20;92.80
16040;DHT22;8124;48.634;8.120;2023-06-26T09:20:07;27.80;92.90
16040;DHT22;8124;48.634;8.120;2023-06-26T09:25:12;28.00;93.60
16040;DHT22;8124;48.634;8.120;2023-06-26T09:30:17;28.20;94.40
16040;DHT22;8124;48.634;8.120;2023-06-26T09:35:21;28.20;95.00
16040;DHT22;8124;48.634;8.120;2023-06-26T09:40:26;28.10;94.50
16040;DHT22;8124;48.634;8.120;2023-06-26T09:45:31;28.20;95.70
16040;DHT22;8124;48.634;8.120;2023-06-26T09:50:35;28.00;95.80
16040;DHT22;8124;48.634;8.120;2023-06-26T09:55:41;27.90;96.40
16040;DHT22;8124;48.634;8.120;2023-06-26T10:00:45;28.10;97.10
16040;DHT22;8124;48.634;8.120;2023-06-26T10:05:50;27.90;97.10
16040;DHT22;8124;48.634;8.120;2023-06-26T10:10:53;28.20;98.90
16040;DHT22;8124;48.634;8.120;2023-06-26T10:15:58;28.20;98.70
16040;DHT22;8124;48.634;8.120;2023-06-26T10:21:04;28.30;99.10
16040;DHT22;8124;48.634;8.120;2023-06-26T10:26:09;28.40;99.00
16040;DHT22;8124;48.634;8.120;2023-06-26T10:31:14;28.40;98.20
16040;DHT22;8124;48.634;8.120;2023-06-26T10:36:27;28.40;97.70
16040;DHT22;8124;48.634;8.120;2023-06-26T10:41:36;28.50;97.10
16040;DHT22;8124;48.634;8.120;2023-06-26T10:46:58;28.30;95.50
16040;DHT22;8124;48.634;8.120;2023-06-26T10:52:02;28.40;94.40
16040;DHT22;8124;48.634;8.120;2023-06-26T10:57:07;28.60;93.70
16040;DHT22;8124;48.634;8.120;2023-06-26T11:02:10;28.80;93.30
16040;DHT22;8124;48.634;8.120;2023-06-26T11:07:21;28.80;92.40
16040;DHT22;8124;48.634;8.120;2023-06-26T11:12:35;28.80;91.90
16040;DHT22;8124;48.634;8.120;2023-06-26T11:17:39;28.80;91.60
16040;DHT22;8124;48.634;8.120;2023-06-26T11:22:44;28.80;90.70
16040;DHT22;8124;48.634;8.120;2023-06-26T11:27:47;28.80;90.10
16040;DHT22;8124;48.634;8.120;2023-06-26T11:33:04;28.80;88.50
16040;DHT22;8124;48.634;8.120;2023-06-26T11:38:09;29.20;87.60
16040;DHT22;8124;48.634;8.120;2023-06-26T11:43:12;28.90;84.20
16040;DHT22;8124;48.634;8.120;2023-06-26T11:48:15;28.70;81.40
16040;DHT22;8124;48.634;8.120;2023-06-26T11:53:20;29.00;80.50
16040;DHT22;8124;48.634;8.120;2023-06-26T11:58:23;29.10;79.30
16040;DHT22;8124;48.634;8.120;2023-06-26T12:03:26;29.10;77.20
16040;DHT22;8124;48.634;8.120;2023-06-26T12:08:31;29.00;75.40
16040;DHT22;8124;48.634;8.120;2023-06-26T12:13:34;29.00;73.80
16040;DHT22;8124;48.634;8.120;2023-06-26T12:18:37;29.20;73.60
16040;DHT22;8124;48.634;8.120;2023-06-26T12:23:43;29.10;72.10
16040;DHT22;8124;48.634;8.120;2023-06-26T12:28:46;29.30;71.40
16040;DHT22;8124;48.634;8.120;2023-06-26T12:33:49;29.30;70.20
16040;DHT22;8124;48.634;8.120;2023-06-26T12:38:56;29.20;69.10
16040;DHT22;8124;48.634;8.120;2023-06-26T12:43:59;29.10;68.00
16040;DHT22;8124;48.634;8.120;2023-06-26T12:49:02;29.10;67.20
16040;DHT22;8124;48.634;8.120;2023-06-26T12:54:14;29.00;66.70
16040;DHT22;8124;48.634;8.120;2023-06-26T12:59:17;29.40;67.20
16040;DHT22;8124;48.634;8.120;2023-06-26T13:04:20;29.40;66.60
16040;DHT22;8124;48.634;8.120;2023-06-26T13:09:25;29.50;66.10
16040;DHT22;8124;48.634;8.120;2023-06-26T13:14:28;29.60;65.70
16040;DHT22;8124;48.634;8.120;2023-06-26T13:19:31;29.80;65.30
16040;DHT22;8124;48.634;8.120;2023-06-26T13:24:35;29.80;64.60
16040;DHT22;8124;48.634;8.120;2023-06-26T13:29:38;29.40;63.10
16040;DHT22;8124;48.634;8.120;2023-06-26T13:34:41;29.20;62.40
16040;DHT22;8124;48.634;8.120;2023-06-26T13:39:46;29.20;61.90
16040;DHT22;8124;48.634;8.120;2023-06-26T13:44:51;29.50;62.40
16040;DHT22;8124;48.634;8.120;2023-06-26T13:50:06;29.50;62.10
16040;DHT22;8124;48.634;8.120;2023-06-26T13:55:10;29.40;61.50
16040;DHT22;8124;48.634;8.120;2023-06-26T14:00:14;29.00;60.40
16040;DHT22;8124;48.634;8.120;2023-06-26T14:05:21;29.30;60.80
16040;DHT22;8124;48.634;8.120;2023-06-26T14:10:36;29.50;60.90
16040;DHT22;8124;48.634;8.120;2023-06-26T14:15:40;29.10;59.80
16040;DHT22;8124;48.634;8.120;2023-06-26T14:20:44;29.20;60.00
16040;DHT22;8124;48.634;8.120;2023-06-26T14:25:48;28.90;59.20
16040;DHT22;8124;48.634;8.120;2023-06-26T14:30:51;29.00;59.40
16040;DHT22;8124;48.634;8.120;2023-06-26T14:35:54;28.70;58.80
16040;DHT22;8124;48.634;8.120;2023-06-26T14:40:59;28.70;58.70
16040;DHT22;8124;48.634;8.120;2023-06-26T14:46:03;28.90;58.70
16040;DHT22;8124;48.634;8.120;2023-06-26T14:51:07;29.00;58.80
16040;DHT22;8124;48.634;8.120;2023-06-26T14:56:13;29.10;58.50
16040;DHT22;8124;48.634;8.120;2023-06-26T15:01:16;29.20;58.30
16040;DHT22;8124;48.634;8.120;2023-06-26T15:06:21;29.10;57.70
16040;DHT22;8124;48.634;8.120;2023-06-26T15:11:26;28.90;56.90
16040;DHT22;8124;48.634;8.120;2023-06-26T15:16:29;28.80;56.40
16040;DHT22;8124;48.634;8.120;2023-06-26T15:21:32;28.70;55.60
16040;DHT22;8124;48.634;8.120;2023-06-26T15:26:43;28.70;55.20
16040;DHT22;8124;48.634;8.120;2023-06-26T15:31:46;29.00;55.00
16040;DHT22;8124;48.634;8.120;2023-06-26T15:36:49;29.00;54.40
16040;DHT22;8124;48.634;8.120;2023-06-26T15:41:54;28.80;53.30
16040;DHT22;8124;48.634;8.120;2023-06-26T15:46:57;28.70;52.30
16040;DHT22;8124;48.634;8.120;2023-06-26T15:52:00;28.40;51.30
16040;DHT22;8124;48.634;8.120;2023-06-26T15:57:11;28.30;50.50
16040;DHT22;8124;48.634;8.120;2023-06-26T16:02:14;28.30;50.00
16040;DHT22;8124;48.634;8.120;2023-06-26T16:07:20;28.10;49.20
16040;DHT22;8124;48.634;8.120;2023-06-26T16:12:27;28.30;48.90
16040;DHT22;8124;48.634;8.120;2023-06-26T16:17:30;28.50;48.80
16040;DHT22;8124;48.634;8.120;2023-06-26T16:22:33;28.70;48.60
16040;DHT22;8124;48.634;8.120;2023-06-26T16:27:37;28.70;48.10
16040;DHT22;8124;48.634;8.120;2023-06-26T16:32:40;28.80;47.80
16040;DHT22;8124;48.634;8.120;2023-06-26T16:37:43;28.60;47.30
16040;DHT22;8124;48.634;8.120;2023-06-26T16:42:48;28.80;47.30
16040;DHT22;8124;48.634;8.120;2023-06-26T16:47:56;28.80;47.10
16040;DHT22;8124;48.634;8.120;2023-06-26T16:52:59;28.80;46.80
16040;DHT22;8124;48.634;8.120;2023-06-26T16:58:03;28.40;46.10
16040;DHT22;8124;48.634;8.120;2023-06-26T17:03:07;28.60;46.10
16040;DHT22;8124;48.634;8.120;2023-06-26T17:08:16;28.40;45.70
16040;DHT22;8124;48.634;8.120;2023-06-26T17:13:20;28.50;45.60
16040;DHT22;8124;48.634;8.120;2023-06-26T17:18:28;28.60;45.50
16040;DHT22;8124;48.634;8.120;2023-06-26T17:23:31;28.30;45.00
16040;DHT22;8124;48.634;8.120;2023-06-26T17:28:36;28.10;45.30
16040;DHT22;8124;48.634;8.120;2023-06-26T17:33:40;27.70;44.20
16040;DHT22;8124;48.634;8.120;2023-06-26T17:38:43;27.80;44.20
16040;DHT22;8124;48.634;8.120;2023-06-26T17:43:47;27.90;44.30
16040;DHT22;8124;48.634;8.120;2023-06-26T17:48:52;27.80;44.10
16040;DHT22;8124;48.634;8.120;2023-06-26T17:53:56;27.90;44.10
16040;DHT22;8124;48.634;8.120;2023-06-26T17:59:00;27.70;43.90
16040;DHT22;8124;48.634;8.120;2023-06-26T18:04:05;27.30;43.50
16040;DHT22;8124;48.634;8.120;2023-06-26T18:09:08;27.40;43.50
16040;DHT22;8124;48.634;8.120;2023-06-26T18:14:13;27.30;43.30
16040;DHT22;8124;48.634;8.120;2023-06-26T18:19:16;27.50;43.50
16040;DHT22;8124;48.634;8.120;2023-06-26T18:24:19;27.30;43.30
16040;DHT22;8124;48.634;8.120;2023-06-26T18:29:24;27.20;43.10
16040;DHT22;8124;48.634;8.120;2023-06-26T18:34:27;27.00;43.00
16040;DHT22;8124;48.634;8.120;2023-06-26T18:39:32;27.00;43.00
16040;DHT22;8124;48.634;8.120;2023-06-26T18:44:37;27.00;43.00
16040;DHT22;8124;48.634;8.120;2023-06-26T18:49:41;26.60;42.70
16040;DHT22;8124;48.634;8.120;2023-06-26T18:54:44;26.50;42.60
16040;DHT22;8124;48.634;8.120;2023-06-26T18:59:49;26.30;42.50
16040;DHT22;8124;48.634;8.120;2023-06-26T19:04:52;26.10;42.30
16040;DHT22;8124;48.634;8.120;2023-06-26T19:09:55;26.10;42.40
16040;DHT22;8124;48.634;8.120;2023-06-26T19:14:59;26.00;42.30
16040;DHT22;8124;48.634;8.120;2023-06-26T19:20:02;25.90;42.20
16040;DHT22;8124;48.634;8.120;2023-06-26T19:25:07;25.90;42.30
16040;DHT22;8124;48.634;8.120;2023-06-26T19:30:13;25.60;42.10
16040;DHT22;8124;48.634;8.120;2023-06-26T19:35:16;25.40;42.00
16040;DHT22;8124;48.634;8.120;2023-06-26T19:40:19;25.40;42.00
16040;DHT22;8124;48.634;8.120;2023-06-26T19:45:23;25.10;41.80
16040;DHT22;8124;48.634;8.120;2023-06-26T19:50:26;24.80;41.80
16040;DHT22;8124;48.634;8.120;2023-06-26T19:55:29;24.60;42.00
16040;DHT22;8124;48.634;8.120;2023-06-26T20:00:36;24.70;42.30
16040;DHT22;8124;48.634;8.120;2023-06-26T20:05:39;25.00;42.80
16040;DHT22;8124;48.634;8.120;2023-06-26T20:10:43;25.30;43.40
16040;DHT22;8124;48.634;8.120;2023-06-26T20:15:48;25.50;43.80
16040;DHT22;8124;48.634;8.120;2023-06-26T20:20:56;25.60;44.00
16040;DHT22;8124;48.634;8.120;2023-06-26T20:25:59;25.50;44.10
16040;DHT22;8124;48.634;8.120;2023-06-26T20:31:04;25.30;44.10
16040;DHT22;8124;48.634;8.120;2023-06-26T20:36:08;25.40;44.30
16040;DHT22;8124;48.634;8.120;2023-06-26T20:41:11;25.40;44.50
16040;DHT22;8124;48.634;8.120;2023-06-26T20:46:16;25.10;44.50
16040;DHT22;8124;48.634;8.120;2023-06-26T20:51:23;24.90;44.70
16040;DHT22;8124;48.634;8.120;2023-06-26T20:56:27;24.90;45.00
16040;DHT22;8124;48.634;8.120;2023-06-26T21:01:31;24.80;45.30
16040;DHT22;8124;48.634;8.120;2023-06-26T21:06:34;24.90;45.60
16040;DHT22;8124;48.634;8.120;2023-06-26T21:11:37;24.80;45.90
16040;DHT22;8124;48.634;8.120;2023-06-26T21:16:42;24.70;46.10
16040;DHT22;8124;48.634;8.120;2023-06-26T21:21:45;24.60;47.00
16040;DHT22;8124;48.634;8.120;2023-06-26T21:26:48;24.60;46.60
16040;DHT22;8124;48.634;8.120;2023-06-26T21:31:52;24.70;46.90
16040;DHT22;8124;48.634;8.120;2023-06-26T21:36:55;24.50;47.20
16040;DHT22;8124;48.634;8.120;2023-06-26T21:41:59;24.60;47.40
16040;DHT22;8124;48.634;8.120;2023-06-26T21:47:03;24.30;47.30
16040;DHT22;8124;48.634;8.120;2023-06-26T21:52:07;23.90;47.20
16040;DHT22;8124;48.634;8.120;2023-06-26T21:57:10;23.40;47.00
16040;DHT22;8124;48.634;8.120;2023-06-26T22:02:14;23.70;47.60
16040;DHT22;8124;48.634;8.120;2023-06-26T22:07:18;23.80;48.40
16040;DHT22;8124;48.634;8.120;2023-06-26T22:12:21;23.60;48.50
16040;DHT22;8124;48.634;8.120;2023-06-26T22:17:29;23.50;48.90
16040;DHT22;8124;48.634;8.120;2023-06-26T22:22:33;23.40;49.20
16040;DHT22;8124;48.634;8.120;2023-06-26T22:27:37;23.70;50.00
16040;DHT22;8124;48.634;8.120;2023-06-26T22:32:41;23.70;50.70
16040;DHT22;8124;48.634;8.120;2023-06-26T22:37:44;23.90;51.10
16040;DHT22;8124;48.634;8.120;2023-06-26T22:42:47;23.90;51.60
16040;DHT22;8124;48.634;8.120;2023-06-26T22:47:52;23.80;51.90
16040;DHT22;8124;48.634;8.120;2023-06-26T22:52:55;23.80;52.30
16040;DHT22;8124;48.634;8.120;2023-06-26T22:57:59;23.70;52.70
16040;DHT22;8124;48.634;8.120;2023-06-26T23:03:03;23.60;53.10
16040;DHT22;8124;48.634;8.120;2023-06-26T23:08:06;23.40;53.80
16040;DHT22;8124;48.634;8.120;2023-06-26T23:13:09;23.50;54.50
16040;DHT22;8124;48.634;8.120;2023-06-26T23:18:14;23.40;54.90
16040;DHT22;8124;48.634;8.120;2023-06-26T23:23:17;22.70;55.00
16040;DHT22;8124;48.634;8.120;2023-06-26T23:28:20;23.10;56.40
16040;DHT22;8124;48.634;8.120;2023-06-26T23:33:24;23.00;57.40
16040;DHT22;8124;48.634;8.120;2023-06-26T23:38:30;23.10;58.30
16040;DHT22;8124;48.634;8.120;2023-06-26T23:43:36;23.00;58.80
16040;DHT22;8124;48.634;8.120;2023-06-26T23:48:42;23.20;59.30
16040;DHT22;8124;48.634;8.120;2023-06-26T23:53:46;22.90;60.80
16040;DHT22;8124;48.634;8.120;2023-06-26T23:58:48;23.10;61.50
